Brunswick Golden Isles Airport
KBQK : now visible

Airfield :











YOU CAN JOIN US ON...

 
LOGIN :

Register | Disclaimer

   EN    FR    IT 

 









Legend :    VFR   Marginal VFR   IFR   Intensive IFR   Very Intensive IFR
Visi :
Ceiling :
>= 8 km
>= 3000ft
5 to 8 km
1000 to 3000 ft
1500m to 5 km
500 to 1000 ft
800 to 1500m
200 to 500 ft
< 800m
< 200 ft
Symbols :   Thunderstorms  Fog  Heavy snow  Heavy precipitations  Wind > 20 kt






- Airport Elevation : 26 ft
- IATA code : BQK


KBQK - Brunswick Golden Isles

CURRENT METAR :
  • 100035Z AUTO 24004KT 10SM CLR 24/18 A2970 RMK AO2 T02420182

EXPIRED METARs :
  • 100015Z AUTO 25005KT 10SM CLR 25/18 A2969 RMK AO2 T02520179
  • 092355Z AUTO 26005KT 10SM CLR 26/18 A2969 RMK AO2 T02650177 10320 20263 403200191
  • 092335Z AUTO 26003KT 10SM CLR 28/18 A2969 RMK AO2 T02760178
  • 092315Z AUTO 27004KT 10SM CLR 29/18 A2969 RMK AO2 T02880178
  • 092255Z AUTO 27007KT 10SM CLR 29/17 A2969 RMK AO2 T02900172
  • 092235Z AUTO 28007KT 10SM CLR 30/17 A2969 RMK AO2 T02970175
  • 092215Z AUTO 28007KT 10SM SCT065 30/18 A2968 RMK AO2 T03040178
  • 092155Z AUTO 28008KT 10SM SCT065 SCT085 31/17 A2968 RMK AO2 T03070173

TAF N/A



MET'MAP, your aeronautical weather chart ! - Copyright ORBIFLY December 2007 - Disclaimer

ORBIFLY MET'MAP TEAM :

Programming & Development : Alexandra Zaïnal
Concept & original design : Baudouin d'Aumeries
Assistance for programming : Marc-Olivier Méhu
Technical & hardware support : Manuel Goepfert

Contact : metmap@orbifly.com




SOURCES & CREDITS :

   NOAA       Earth
Advisory